Time;durP1;ratioP1;P1;durP2;ratioP2;P2;SDS_P1;SDS_P2;PMS_P1;PMS_P2;Temp;Humidity;BMP_temperature;BMP_pressure;BME280_temperature;BME280_humidity;BME280_pressure;Samples;Min_cycle;Max_cycle;Signal;HPM_P1;HPM_P2
2021/03/29 00:02:23;;;;;;;84.13;41.55;;;;;;;4.56;55.10;100419.75;265860;1091;114411;-71
2021/03/29 00:07:28;;;;;;;82.83;41.65;;;;;;;4.54;55.30;100432.07;266027;1091;114353;-71
2021/03/29 00:12:33;;;;;;;96.98;44.45;;;;;;;4.53;55.35;100419.80;265894;1091;114529;-74
2021/03/29 00:17:38;;;;;;;85.30;41.50;;;;;;;4.51;55.07;100419.80;265994;1092;114496;-75
2021/03/29 00:22:41;;;;;;;;;;;;;;;4.47;55.29;100413.70;266220;1091;114448;-76
2021/03/29 00:27:43;;;;;;;87.93;41.23;;;;;;;4.45;55.29;100420.78;265995;1091;100889;-75
2021/03/29 00:32:47;;;;;;;86.35;42.48;;;;;;;4.46;55.68;100416.38;265866;1091;115112;-70
2021/03/29 00:37:53;;;;;;;88.78;41.48;;;;;;;4.46;55.71;100432.20;265890;1091;114595;-70
2021/03/29 00:43:07;;;;;;;77.27;37.93;;;;;;;4.49;55.97;100432.16;266023;1092;114613;-71
2021/03/29 00:48:11;;;;;;;60.35;30.28;;;;;;;4.70;55.79;100439.73;266245;1091;114552;-70
2021/03/29 00:53:15;;;;;;;60.30;27.55;;;;;;;4.93;55.69;100427.95;263286;1091;114962;-70
2021/03/29 00:58:23;;;;;;;59.28;29.08;;;;;;;5.14;55.35;100434.63;266211;1091;114570;-71
2021/03/29 01:03:32;;;;;;;57.23;28.65;;;;;;;5.32;54.21;100438.70;266253;1091;114503;-70
2021/03/29 01:08:41;;;;;;;55.87;27.47;;;;;;;5.47;54.45;100441.08;266281;1091;114664;-70
2021/03/29 01:13:47;;;;;;;55.73;27.07;;;;;;;5.58;53.77;100444.38;265854;1091;114624;-70
2021/03/29 01:18:55;;;;;;;56.95;27.18;;;;;;;5.66;53.93;100441.58;265878;1091;118282;-71
2021/03/29 01:24:04;;;;;;;55.60;27.10;;;;;;;5.72;53.81;100428.26;265873;1091;114372;-69
2021/03/29 01:29:08;;;;;;;57.65;27.30;;;;;;;5.76;53.45;100432.57;266227;1091;114530;-70
2021/03/29 01:34:15;;;;;;;59.80;29.23;;;;;;;5.76;53.32;100437.86;266167;1091;114589;-75
2021/03/29 01:39:18;;;;;;;54.35;27.70;;;;;;;5.76;53.17;100442.27;265920;1091;114747;-70
2021/03/29 01:44:21;;;;;;;53.85;28.05;;;;;;;5.72;53.09;100428.26;266215;1091;114368;-70
2021/03/29 01:49:25;;;;;;;60.95;27.78;;;;;;;5.69;52.92;100433.59;265882;1091;114388;-71
2021/03/29 01:54:29;;;;;;;57.80;29.08;;;;;;;5.64;53.05;100440.76;265872;1091;114611;-71
2021/03/29 01:59:32;;;;;;;59.33;28.70;;;;;;;5.58;52.57;100444.38;266248;1091;114523;-70
2021/03/29 02:04:35;;;;;;;64.58;29.00;;;;;;;5.53;53.09;100426.86;266192;1091;114923;-71
2021/03/29 02:09:39;;;;;;;58.18;29.25;;;;;;;5.49;53.08;100430.47;266004;1091;114825;-69
2021/03/29 02:14:44;;;;;;;62.00;30.88;;;;;;;5.47;53.26;100425.23;265956;1091;114654;-70
2021/03/29 02:19:47;;;;;;;63.30;31.03;;;;;;;5.39;53.05;100429.77;266035;1092;114918;-70
2021/03/29 02:24:50;;;;;;;54.53;28.23;;;;;;;5.31;53.00;100421.13;266227;1091;114703;-69
2021/03/29 02:29:53;;;;;;;62.95;30.08;;;;;;;5.30;53.13;100429.92;266058;1092;114470;-75
2021/03/29 02:34:56;;;;;;;65.93;32.90;;;;;;;5.20;52.85;100434.52;264945;1091;114747;-76
2021/03/29 02:39:58;;;;;;;64.33;31.78;;;;;;;5.13;52.77;100430.22;262466;1091;115289;-75
2021/03/29 02:45:06;;;;;;;54.73;27.00;;;;;;;5.09;53.79;100424.13;264249;1091;115076;-75
2021/03/29 02:50:11;;;;;;;54.80;29.53;;;;;;;5.12;53.76;100416.16;265709;1091;114777;-70
2021/03/29 02:55:14;;;;;;;;;;;;;;;5.16;53.86;100422.25;266101;1091;114661;-69
2021/03/29 03:00:21;;;;;;;58.65;29.73;;;;;;;5.12;54.23;100424.08;266317;1091;101010;-69
2021/03/29 03:05:28;;;;;;;60.98;29.78;;;;;;;5.14;53.83;100434.63;266079;1091;114623;-69
2021/03/29 03:10:32;;;;;;;65.00;30.15;;;;;;;5.18;54.73;100441.58;266177;1091;114838;-69
2021/03/29 03:15:37;;;;;;;61.78;30.33;;;;;;;5.19;54.79;100432.77;265818;1092;115398;-68
2021/03/29 03:20:41;;;;;;;66.80;31.43;;;;;;;5.18;54.94;100428.39;265877;1091;114542;-69
2021/03/29 03:25:49;;;;;;;67.33;33.00;;;;;;;5.16;54.59;100438.98;264987;1091;115020;-76
2021/03/29 03:30:55;;;;;;;63.65;32.98;;;;;;;5.12;55.40;100439.91;266080;1092;114591;-74
2021/03/29 03:35:58;;;;;;;68.35;32.93;;;;;;;5.15;55.03;100439.86;266134;1091;114852;-73
2021/03/29 03:41:08;;;;;;;68.90;32.88;;;;;;;5.19;55.63;100435.40;263335;1091;114970;-75
2021/03/29 03:46:15;;;;;;;72.83;34.68;;;;;;;5.20;55.57;100431.89;262946;1091;114644;-76
2021/03/29 03:51:22;;;;;;;74.63;35.25;;;;;;;5.19;55.72;100433.63;266251;1091;114594;-74
2021/03/29 03:56:26;;;;;;;71.20;34.40;;;;;;;5.19;56.03;100436.27;266242;1091;114176;-74
2021/03/29 04:01:38;;;;;;;72.93;33.65;;;;;;;5.21;56.19;100438.89;266270;1091;115173;-70
2021/03/29 04:06:40;;;;;;;65.68;32.60;;;;;;;5.21;56.46;100428.34;265906;1091;114563;-68
2021/03/29 04:11:43;;;;;;;64.33;33.83;;;;;;;5.27;56.59;100436.16;266036;1091;114676;-69
2021/03/29 04:16:46;;;;;;;69.80;33.83;;;;;;;5.30;56.64;100443.13;261753;1092;114982;-78
2021/03/29 04:21:50;;;;;;;73.70;33.40;;;;;;;5.27;56.91;100444.07;265699;1091;114622;-74
2021/03/29 04:26:53;;;;;;;74.53;32.70;;;;;;;5.33;56.82;100454.53;265637;1092;114547;-75
2021/03/29 04:31:55;;;;;;;55.85;26.20;;;;;;;5.36;56.02;100451.80;265725;1092;114603;-75
2021/03/29 04:36:58;;;;;;;55.93;26.95;;;;;;;5.45;56.11;100461.34;266042;1091;115106;-74
2021/03/29 04:42:01;;;;;;;55.50;26.05;;;;;;;5.50;55.54;100461.25;266306;1092;114589;-74
2021/03/29 04:47:03;;;;;;;62.18;28.65;;;;;;;5.58;55.63;100464.63;266216;1091;114541;-74
2021/03/29 04:52:06;;;;;;;69.15;29.28;;;;;;;5.65;56.04;100466.25;265207;1091;114687;-75
2021/03/29 04:57:09;;;;;;;60.78;26.70;;;;;;;5.70;55.67;100467.02;264809;1091;114518;-75
2021/03/29 05:02:12;;;;;;;68.35;31.05;;;;;;;5.76;55.84;100466.05;266112;1091;114675;-73
2021/03/29 05:07:15;;;;;;;69.08;31.28;;;;;;;5.83;55.68;100472.95;266209;1091;114518;-69
2021/03/29 05:12:22;;;;;;;53.65;23.98;;;;;;;5.90;56.08;100469.28;265875;1092;114412;-68
2021/03/29 05:17:25;;;;;;;52.28;23.95;;;;;;;5.99;55.82;100465.63;266209;1091;114551;-69
2021/03/29 05:22:28;;;;;;;51.18;24.08;;;;;;;6.05;55.75;100468.16;266261;1092;114694;-69
2021/03/29 05:27:31;;;;;;;50.80;24.30;;;;;;;6.10;55.65;100464.49;266174;1091;114549;-69
2021/03/29 05:32:33;;;;;;;52.80;24.05;;;;;;;6.12;54.64;100459.19;266253;1091;114588;-70
2021/03/29 05:37:36;;;;;;;55.48;24.75;;;;;;;6.18;54.57;100464.33;265968;1091;114301;-69
2021/03/29 05:42:39;;;;;;;60.88;26.03;;;;;;;6.26;55.17;100472.98;266276;1091;114934;-68
2021/03/29 05:47:42;;;;;;;50.50;25.45;;;;;;;6.35;54.18;100471.89;266215;1091;114598;-68
2021/03/29 05:52:45;;;;;;;57.73;25.10;;;;;;;6.40;53.99;100476.19;265937;1091;114617;-68
2021/03/29 06:03:40;;;;;;;53.95;24.73;;;;;;;6.54;54.41;100481.17;266229;1091;114661;-68
2021/03/29 06:08:51;;;;;;;50.33;23.35;;;;;;;6.68;54.31;100482.64;265703;1091;114905;-67
2021/03/29 06:14:22;;;;;;;54.50;23.38;;;;;;;6.82;54.34;100484.05;265727;1091;114660;-68
2021/03/29 06:19:49;;;;;;;49.98;23.02;;;;;;;6.98;54.69;100479.27;266024;1091;114729;-69
2021/03/29 06:25:04;;;;;;;47.50;22.05;;;;;;;7.14;54.06;100470.97;265960;1092;114643;-68
2021/03/29 06:30:29;;;;;;;49.08;20.05;;;;;;;7.28;54.32;100476.78;266220;1091;114782;-68
2021/03/29 06:35:31;;;;;;;37.43;17.38;;;;;;;7.38;53.33;100467.70;266228;1091;114656;-67
2021/03/29 06:40:36;;;;;;;38.13;17.27;;;;;;;7.51;54.08;100470.90;261691;1092;114778;-70
2021/03/29 06:45:39;;;;;;;37.55;16.75;;;;;;;7.66;54.04;100473.13;266187;1091;115106;-69
2021/03/29 06:50:41;;;;;;;33.65;16.30;;;;;;;7.76;53.71;100473.75;265882;1091;114421;-69
2021/03/29 06:55:45;;;;;;;36.95;17.05;;;;;;;7.82;53.33;100471.80;266266;1092;114571;-69
2021/03/29 07:00:54;;;;;;;29.50;15.05;;;;;;;7.89;52.53;100474.28;265570;1091;114645;-70
2021/03/29 07:05:57;;;;;;;31.43;14.78;;;;;;;7.95;52.89;100463.52;265720;1091;114653;-71
2021/03/29 07:11:00;;;;;;;26.58;13.65;;;;;;;8.02;52.28;100470.38;265178;1091;114593;-71
2021/03/29 07:16:06;;;;;;;32.93;14.75;;;;;;;8.09;52.68;100465.77;265952;1091;114571;-75
2021/03/29 07:21:13;;;;;;;31.70;12.40;;;;;;;8.15;52.49;100461.16;265080;1091;114550;-76
2021/03/29 07:26:39;;;;;;;27.13;12.65;;;;;;;8.28;52.59;100462.52;263956;1091;114479;-75
2021/03/29 07:31:42;;;;;;;26.10;12.58;;;;;;;8.39;51.92;100464.91;265877;1091;115051;-75
2021/03/29 07:36:49;;;;;;;27.18;12.48;;;;;;;8.52;52.15;100470.68;266244;1091;114336;-73
2021/03/29 07:42:24;;;;;;;30.53;14.90;;;;;;;8.61;51.74;100478.37;266029;1091;114677;-75
2021/03/29 07:47:47;;;;;;;24.28;12.23;;;;;;;8.74;51.95;100477.07;266095;1091;114689;-75
2021/03/29 07:53:05;;;;;;;25.58;11.43;;;;;;;8.83;51.70;100475.03;265901;1091;114694;-76
2021/03/29 07:58:10;;;;;;;24.28;11.00;;;;;;;8.91;51.50;100473.02;266236;1092;114629;-74
2021/03/29 08:03:22;;;;;;;25.05;11.05;;;;;;;9.02;52.00;100477.98;265453;1091;114445;-74
2021/03/29 08:08:32;;;;;;;22.25;10.45;;;;;;;9.15;51.74;100480.18;265119;1091;114497;-77
2021/03/29 08:13:43;;;;;;;22.75;10.25;;;;;;;9.24;51.51;100482.55;265837;1091;114568;-75
2021/03/29 08:19:07;;;;;;;23.28;10.73;;;;;;;9.34;51.25;100472.48;263585;1091;115231;-71
2021/03/29 08:24:41;;;;;;;21.50;10.70;;;;;;;9.48;51.52;100474.66;266207;1091;114591;-71
2021/03/29 08:29:46;;;;;;;23.63;10.95;;;;;;;9.55;50.90;100470.87;265855;1091;114650;-71
2021/03/29 08:35:08;;;;;;;27.48;11.13;;;;;;;9.65;51.27;100472.28;265860;1091;114784;-72
2021/03/29 08:40:26;;;;;;;26.10;11.48;;;;;;;9.74;51.23;100471.08;266029;1091;115244;-71
2021/03/29 08:45:29;;;;;;;25.73;12.60;;;;;;;9.81;51.03;100466.41;265934;1092;114825;-71
2021/03/29 08:50:35;;;;;;;32.48;12.68;;;;;;;9.90;51.12;100468.74;266226;1091;114861;-71
2021/03/29 08:55:41;;;;;;;33.53;11.95;;;;;;;10.00;50.96;100466.62;266195;1091;114785;-71
2021/03/29 09:00:45;;;;;;;21.43;10.30;;;;;;;10.08;50.86;100465.39;266321;1091;114845;-70
2021/03/29 09:05:48;;;;;;;26.50;11.60;;;;;;;10.15;51.14;100476.67;266016;1091;115234;-71
2021/03/29 09:10:50;;;;;;;23.15;11.05;;;;;;;10.20;51.24;100474.73;266279;1091;115217;-71
2021/03/29 09:15:54;;;;;;;24.38;10.60;;;;;;;10.24;50.83;100484.33;265975;1091;114786;-71
2021/03/29 09:20:56;;;;;;;23.28;10.15;;;;;;;10.33;51.01;100480.50;266269;1091;114551;-71
2021/03/29 09:26:04;;;;;;;20.75;10.38;;;;;;;10.41;50.84;100467.75;266379;1091;114935;-70
2021/03/29 09:31:15;;;;;;;25.10;11.55;;;;;;;10.52;50.91;100472.66;265961;1091;114924;-71
2021/03/29 09:36:22;;;;;;;21.33;12.20;;;;;;;10.65;50.88;100474.78;266305;1091;115073;-71
2021/03/29 09:41:30;;;;;;;33.48;12.13;;;;;;;10.78;51.00;100469.84;265937;1091;114601;-72
2021/03/29 09:46:35;;;;;;;27.75;9.85;;;;;;;10.88;50.25;100462.36;266100;1091;114795;-72
2021/03/29 09:51:40;;;;;;;27.85;11.13;;;;;;;10.98;50.13;100469.05;265977;1091;114792;-71
2021/03/29 09:56:43;;;;;;;24.90;10.95;;;;;;;11.13;50.83;100465.73;265983;1091;115537;-71
2021/03/29 10:01:46;;;;;;;25.23;10.93;;;;;;;11.31;51.06;100453.47;266037;1091;114889;-71
2021/03/29 10:06:58;;;;;;;17.93;9.70;;;;;;;11.48;50.30;100442.08;262330;1091;114670;-76
2021/03/29 10:12:03;;;;;;;29.73;9.97;;;;;;;11.67;50.58;100444.80;265126;1091;114698;-76
2021/03/29 10:17:19;;;;;;;;;;;;;;;11.86;49.98;100441.37;262780;1091;116258;-78
2021/03/29 10:22:24;;;;;;;22.18;10.80;;;;;;;12.03;50.03;100431.66;264773;1091;102976;-76
2021/03/29 10:27:47;;;;;;;23.40;9.73;;;;;;;12.25;50.56;100430.66;266366;1091;114752;-77
2021/03/29 10:32:52;;;;;;;16.10;8.58;;;;;;;12.47;50.04;100423.38;266328;1090;114693;-69
2021/03/29 10:37:57;;;;;;;20.90;9.10;;;;;;;12.75;49.72;100417.56;266360;1091;114623;-70
2021/03/29 10:43:00;;;;;;;18.45;9.03;;;;;;;12.93;49.05;100421.13;266003;1092;114494;-77
2021/03/29 10:48:03;;;;;;;18.55;7.95;;;;;;;13.00;48.53;100419.02;262510;1091;114535;-77
2021/03/29 10:53:06;;;;;;;21.03;8.93;;;;;;;13.09;48.62;100412.36;262959;1092;115009;-79
2021/03/29 10:58:09;;;;;;;14.53;7.83;;;;;;;13.21;48.00;100404.59;265008;1091;114374;-77
2021/03/29 11:03:13;;;;;;;15.48;8.35;;;;;;;13.34;47.60;100409.33;265650;1091;114524;-79
2021/03/29 11:08:19;;;;;;;19.33;8.55;;;;;;;13.44;47.53;100406.09;266406;1091;114958;-78
2021/03/29 11:13:23;;;;;;;;;;;;;;;13.58;47.34;100407.19;264102;1091;114469;-79
2021/03/29 11:18:26;;;;;;;18.43;8.33;;;;;;;13.64;47.64;100401.52;265357;1091;103029;-79
2021/03/29 11:23:29;;;;;;;15.48;7.15;;;;;;;13.70;46.93;100394.03;264735;1091;114550;-77
2021/03/29 11:28:32;;;;;;;16.28;7.08;;;;;;;13.79;46.80;100399.83;264915;1091;115239;-78
2021/03/29 11:33:35;;;;;;;13.48;6.15;;;;;;;13.87;46.83;100393.14;261736;1091;115064;-79
2021/03/29 11:38:39;;;;;;;12.83;5.83;;;;;;;13.87;46.43;100403.84;263311;1091;114389;-78
2021/03/29 11:43:41;;;;;;;14.78;4.83;;;;;;;13.89;45.85;100391.25;263438;1091;114470;-71
2021/03/29 11:48:44;;;;;;;10.93;4.13;;;;;;;13.93;45.79;100387.45;264764;1091;114861;-70
2021/03/29 11:53:47;;;;;;;11.85;3.98;;;;;;;13.97;46.12;100382.80;265913;1091;114619;-72
2021/03/29 11:58:51;;;;;;;8.80;3.78;;;;;;;13.98;45.78;100384.52;266208;1091;114995;-73
2021/03/29 12:04:01;;;;;;;;;;;;;;;14.02;45.04;100379.86;266316;1091;114794;-72
2021/03/29 12:14:08;;;;;;;11.43;4.55;;;;;;;14.04;45.02;100378.84;266246;1091;115270;-72
2021/03/29 12:19:12;;;;;;;14.60;4.63;;;;;;;14.05;45.00;100377.02;266308;1092;115083;-72
2021/03/29 12:24:18;;;;;;;13.85;4.20;;;;;;;14.07;45.12;100373.31;266323;1091;114772;-71
2021/03/29 12:29:46;;;;;;;14.43;4.48;;;;;;;14.10;44.50;100366.94;265981;1091;115025;-70
2021/03/29 12:34:55;;;;;;;13.03;4.30;;;;;;;14.13;44.77;100356.03;266208;1091;115195;-72
2021/03/29 12:40:05;;;;;;;11.38;4.20;;;;;;;14.14;45.14;100352.42;265345;1091;114786;-72
2021/03/29 12:45:10;;;;;;;10.60;3.78;;;;;;;14.16;44.88;100350.52;265218;1092;115156;-72
2021/03/29 12:50:15;;;;;;;10.10;3.50;;;;;;;14.22;44.55;100354.67;266278;1091;114791;-72
2021/03/29 12:55:20;;;;;;;;;;;;;;;14.27;44.69;100355.30;265967;1091;115611;-72
2021/03/29 13:00:29;;;;;;;11.00;3.38;;;;;;;14.31;44.52;100360.38;266287;1091;100845;-72
2021/03/29 13:05:38;;;;;;;12.48;4.00;;;;;;;14.32;44.63;100359.41;266279;1091;115379;-79
2021/03/29 13:16:04;;;;;;;10.33;3.85;;;;;;;14.44;44.98;100353.38;266063;1091;114924;-72
2021/03/29 13:21:07;;;;;;;9.23;4.25;;;;;;;14.51;45.13;100358.42;266327;1091;114585;-71
2021/03/29 13:26:15;;;;;;;11.88;4.30;;;;;;;14.54;44.18;100355.58;266370;1091;114836;-72
2021/03/29 13:31:19;;;;;;;10.63;4.20;;;;;;;14.55;44.88;100350.11;264615;1091;115611;-74
2021/03/29 13:36:23;;;;;;;9.80;3.48;;;;;;;14.57;44.24;100350.02;265850;1091;114648;-73
2021/03/29 13:41:26;;;;;;;10.95;3.70;;;;;;;14.56;44.40;100350.97;265860;1091;114972;-72
2021/03/29 13:46:29;;;;;;;12.20;4.50;;;;;;;14.54;44.32;100343.04;265344;1091;114446;-73
2021/03/29 13:51:32;;;;;;;9.70;4.00;;;;;;;14.53;44.11;100340.43;265568;1091;114323;-71
2021/03/29 13:56:38;;;;;;;10.00;3.40;;;;;;;14.53;44.37;100345.78;266363;1091;114797;-71
2021/03/29 14:01:41;;;;;;;12.10;3.83;;;;;;;14.51;44.84;100337.86;266316;1091;114863;-70
2021/03/29 14:06:44;;;;;;;9.65;3.80;;;;;;;14.48;44.05;100348.70;263877;1091;114658;-77
2021/03/29 14:11:47;;;;;;;11.65;3.50;;;;;;;14.41;44.24;100345.52;266046;1091;114853;-71
2021/03/29 14:16:51;;;;;;;14.25;4.43;;;;;;;14.40;44.73;100349.16;266263;1091;114902;-71
2021/03/29 14:21:56;;;;;;;7.90;3.50;;;;;;;14.37;44.42;100346.64;266211;1091;114650;-72
2021/03/29 14:27:00;;;;;;;11.65;3.88;;;;;;;14.35;44.92;100359.25;266186;1092;114675;-71
2021/03/29 14:32:03;;;;;;;11.50;3.80;;;;;;;14.29;45.44;100356.91;263991;1091;115121;-71
2021/03/29 14:37:27;;;;;;;13.73;4.25;;;;;;;14.22;45.48;100360.02;266259;1091;114810;-71
2021/03/29 14:42:42;;;;;;;27.80;12.48;;;;;;;14.11;45.28;100360.63;266335;1091;115149;-72
2021/03/29 14:47:44;;;;;;;11.48;4.33;;;;;;;14.03;45.47;100368.20;263888;1091;115674;-71
2021/03/29 14:52:47;;;;;;;13.03;4.75;;;;;;;13.88;46.42;100362.74;266253;1091;114830;-72
2021/03/29 14:57:50;;;;;;;12.38;4.80;;;;;;;13.72;46.76;100372.53;266290;1091;115226;-72
2021/03/29 15:03:00;;;;;;;16.63;5.18;;;;;;;13.63;46.84;100371.23;263200;1091;115098;-71
2021/03/29 15:08:03;;;;;;;13.38;5.70;;;;;;;13.59;47.23;100377.70;266341;1091;115102;-72
2021/03/29 15:13:06;;;;;;;10.40;5.20;;;;;;;13.51;47.92;100376.36;266316;1091;115014;-72
2021/03/29 15:18:09;;;;;;;12.95;5.48;;;;;;;13.45;48.30;100378.43;266260;1091;115372;-71
2021/03/29 15:23:12;;;;;;;11.08;4.85;;;;;;;13.43;48.72;100382.98;266358;1091;114904;-71
2021/03/29 15:28:14;;;;;;;11.53;5.00;;;;;;;13.33;48.63;100372.84;266277;1091;115068;-72
2021/03/29 15:33:17;;;;;;;18.80;8.50;;;;;;;13.23;48.85;100364.41;266362;1091;114863;-72
2021/03/29 15:38:20;;;;;;;15.68;6.15;;;;;;;13.14;49.97;100367.54;266308;1091;114965;-71
2021/03/29 15:43:23;;;;;;;14.10;5.48;;;;;;;13.06;49.27;100361.73;266320;1091;114745;-72
2021/03/29 15:48:26;;;;;;;12.20;4.90;;;;;;;12.95;50.13;100367.63;266240;1091;114809;-72
2021/03/29 15:53:28;;;;;;;16.53;5.35;;;;;;;12.86;50.18;100371.61;266062;1091;114406;-74
2021/03/29 15:58:32;;;;;;;15.65;6.40;;;;;;;12.82;51.09;100359.36;264193;1091;114935;-73
2021/03/29 16:03:43;;;;;;;17.13;6.20;;;;;;;12.76;51.17;100357.84;266293;1091;115055;-71
2021/03/29 16:08:46;;;;;;;16.73;5.73;;;;;;;12.68;51.77;100352.03;266276;1091;114858;-71
2021/03/29 16:13:48;;;;;;;11.83;6.50;;;;;;;12.60;52.31;100348.89;266356;1091;115222;-70
2021/03/29 16:18:52;;;;;;;16.05;6.68;;;;;;;12.51;52.97;100349.33;266342;1091;115395;-77
2021/03/29 16:23:55;;;;;;;17.15;6.60;;;;;;;12.43;52.71;100335.47;266358;1091;114792;-76
2021/03/29 16:29:02;;;;;;;14.03;6.27;;;;;;;12.41;53.55;100326.69;263359;1091;114580;-76
2021/03/29 16:34:05;;;;;;;17.10;6.98;;;;;;;12.36;53.21;100329.56;265522;1091;115285;-77
2021/03/29 16:39:07;;;;;;;19.40;7.53;;;;;;;12.29;54.41;100328.14;266301;1091;114574;-75
2021/03/29 16:44:10;;;;;;;20.73;8.00;;;;;;;12.24;54.48;100330.18;266297;1091;115187;-76
2021/03/29 16:49:13;;;;;;;19.00;7.20;;;;;;;12.19;54.87;100329.52;266156;1091;115133;-75
2021/03/29 16:54:36;;;;;;;19.53;7.73;;;;;;;12.14;54.58;100329.75;266240;1091;115364;-74
2021/03/29 16:59:59;;;;;;;20.23;8.20;;;;;;;12.11;55.10;100335.23;263490;1092;115954;-74
2021/03/29 17:05:04;;;;;;;18.80;8.58;;;;;;;12.10;55.60;100335.31;266053;1091;114799;-74
2021/03/29 17:10:08;;;;;;;18.33;9.35;;;;;;;12.03;55.51;100329.41;264616;1091;115190;-78
2021/03/29 17:15:12;;;;;;;17.70;9.40;;;;;;;12.00;55.51;100329.55;264569;1092;115583;-77
2021/03/29 17:20:15;;;;;;;20.15;9.65;;;;;;;11.98;55.94;100329.59;266107;1091;115080;-76
2021/03/29 17:25:19;;;;;;;23.58;10.40;;;;;;;11.95;56.60;100336.88;266119;1091;114815;-75
2021/03/29 17:30:22;;;;;;;20.50;9.78;;;;;;;11.92;56.41;100345.03;266104;1092;114831;-73
2021/03/29 17:35:27;;;;;;;26.40;11.80;;;;;;;11.89;56.77;100345.17;266357;1091;114534;-74
2021/03/29 17:40:33;;;;;;;;;;;;;;;11.94;56.60;100344.03;266536;1091;115493;-74
2021/03/29 17:45:36;;;;;;;23.20;11.77;;;;;;;11.95;57.48;100345.75;266584;1091;101740;-74
2021/03/29 17:50:39;;;;;;;29.13;12.83;;;;;;;12.00;57.16;100349.08;266270;1091;114628;-74
2021/03/29 17:55:42;;;;;;;23.50;12.38;;;;;;;12.07;57.47;100355.86;265447;1091;115165;-74
2021/03/29 18:00:45;;;;;;;25.30;11.63;;;;;;;12.03;57.38;100362.28;264888;1091;114964;-74
2021/03/29 18:05:47;;;;;;;26.30;13.65;;;;;;;12.00;57.54;100358.89;265970;1091;115029;-75
2021/03/29 18:10:51;;;;;;;24.20;13.53;;;;;;;11.97;58.19;100357.23;266305;1091;114939;-75
2021/03/29 18:15:54;;;;;;;23.75;13.25;;;;;;;11.90;57.82;100353.11;266341;1091;114682;-75
2021/03/29 18:20:57;;;;;;;26.25;12.80;;;;;;;11.84;58.06;100364.92;265851;1091;114912;-75
2021/03/29 18:26:00;;;;;;;28.50;14.40;;;;;;;11.82;58.27;100363.25;266335;1091;114740;-74
2021/03/29 18:31:05;;;;;;;26.48;13.33;;;;;;;11.76;58.56;100356.39;266306;1091;114920;-75
2021/03/29 18:36:09;;;;;;;30.13;14.13;;;;;;;11.70;58.79;100364.66;266343;1091;115078;-75
2021/03/29 18:41:11;;;;;;;24.48;13.35;;;;;;;11.66;58.74;100368.41;266331;1091;114822;-75
2021/03/29 18:46:15;;;;;;;23.20;13.25;;;;;;;11.68;59.24;100369.19;265993;1092;115147;-75
2021/03/29 18:51:18;;;;;;;26.60;13.10;;;;;;;11.69;59.00;100372.75;266322;1091;114810;-75
2021/03/29 19:01:23;;;;;;;24.50;13.05;;;;;;;11.60;59.38;100374.88;266352;1091;114564;-74
2021/03/29 19:06:32;;;;;;;27.93;13.10;;;;;;;11.60;59.47;100382.01;266325;1091;114742;-75
2021/03/29 19:11:37;;;;;;;29.40;13.30;;;;;;;11.51;59.06;100390.41;266342;1091;114723;-74
2021/03/29 19:16:41;;;;;;;25.55;13.18;;;;;;;11.43;60.14;100390.75;266013;1092;114943;-75
2021/03/29 19:21:46;;;;;;;24.90;13.43;;;;;;;11.41;60.30;100384.61;265994;1091;114766;-74
2021/03/29 19:26:54;;;;;;;29.23;14.43;;;;;;;11.43;60.48;100390.75;264312;1091;115039;-74
2021/03/29 19:31:58;;;;;;;27.65;14.48;;;;;;;11.47;60.35;100383.48;266322;1091;115001;-74
2021/03/29 19:37:01;;;;;;;27.35;15.13;;;;;;;11.49;60.51;100390.49;266029;1091;115296;-73
2021/03/29 19:42:04;;;;;;;25.60;14.98;;;;;;;11.48;60.60;100386.10;265972;1091;114725;-74
2021/03/29 19:47:06;;;;;;;30.43;15.60;;;;;;;11.49;60.93;100395.82;266097;1091;114885;-73
2021/03/29 19:52:09;;;;;;;30.18;15.43;;;;;;;11.43;60.87;100390.75;266286;1091;115066;-77
2021/03/29 19:57:12;;;;;;;29.20;15.53;;;;;;;11.35;60.83;100395.56;266331;1091;115104;-74
2021/03/29 20:02:17;;;;;;;28.90;14.85;;;;;;;11.29;61.45;100393.16;266303;1091;114778;-73
2021/03/29 20:07:41;;;;;;;26.58;14.85;;;;;;;11.25;61.40;100389.77;266336;1091;114884;-74
2021/03/29 20:12:43;;;;;;;25.73;14.83;;;;;;;11.25;61.49;100399.56;266330;1092;115128;-75
2021/03/29 20:17:51;;;;;;;26.03;14.53;;;;;;;11.21;61.61;100392.60;266307;1091;115306;-74
2021/03/29 20:22:54;;;;;;;29.80;15.58;;;;;;;11.23;61.77;100386.28;266301;1091;115444;-75
2021/03/29 20:27:57;;;;;;;28.73;16.35;;;;;;;11.22;62.46;100381.89;266377;1091;114779;-76
2021/03/29 20:32:59;;;;;;;33.53;16.75;;;;;;;11.19;62.47;100381.16;263992;1092;114965;-75
2021/03/29 20:38:02;;;;;;;28.58;16.70;;;;;;;11.17;62.06;100378.55;266299;1091;114758;-75
2021/03/29 20:43:05;;;;;;;31.88;17.38;;;;;;;11.11;61.97;100382.36;266320;1091;115288;-75
2021/03/29 20:48:08;;;;;;;32.58;17.03;;;;;;;11.11;62.60;100384.16;266335;1091;114857;-74
2021/03/29 20:53:11;;;;;;;33.53;17.90;;;;;;;11.10;62.88;100383.27;266464;1091;116809;-75
2021/03/29 20:58:13;;;;;;;32.93;17.50;;;;;;;11.12;62.85;100389.41;266280;1091;114934;-75
2021/03/29 21:03:16;;;;;;;28.00;16.48;;;;;;;11.11;63.23;100389.49;265957;1092;115259;-75
2021/03/29 21:08:18;;;;;;;27.60;16.05;;;;;;;11.07;63.16;100387.86;266302;1092;115040;-75
2021/03/29 21:13:21;;;;;;;28.83;15.60;;;;;;;11.07;63.10;100388.76;266301;1091;115036;-75
2021/03/29 21:18:24;;;;;;;25.33;15.18;;;;;;;11.06;63.10;100394.99;266356;1091;115070;-75
2021/03/29 21:23:27;;;;;;;26.85;15.83;;;;;;;11.03;63.10;100403.11;266312;1091;115426;-75
2021/03/29 21:28:30;;;;;;;28.35;15.00;;;;;;;11.07;63.30;100398.52;266235;1091;114884;-75
2021/03/29 21:33:34;;;;;;;26.78;15.10;;;;;;;11.11;63.59;100398.34;266346;1091;114858;-75
2021/03/29 21:38:37;;;;;;;25.95;16.35;;;;;;;11.17;63.84;100399.00;266262;1091;114995;-75
2021/03/29 21:43:40;;;;;;;31.40;17.95;;;;;;;11.17;63.45;100399.00;266352;1091;114759;-75
2021/03/29 21:48:43;;;;;;;29.28;16.90;;;;;;;11.12;64.01;100394.73;266318;1091;114833;-74
2021/03/29 21:53:46;;;;;;;29.88;18.65;;;;;;;11.09;63.83;100397.53;266336;1091;114754;-73
2021/03/29 21:58:48;;;;;;;31.85;17.95;;;;;;;11.07;64.20;100395.86;266326;1092;114899;-74
2021/03/29 22:03:51;;;;;;;31.43;16.55;;;;;;;11.08;63.74;100393.14;266318;1091;114989;-73
2021/03/29 22:08:55;;;;;;;31.63;18.03;;;;;;;11.15;64.13;100395.55;266320;1091;114838;-74
2021/03/29 22:13:57;;;;;;;30.05;15.83;;;;;;;11.16;64.16;100390.14;266304;1091;114910;-73
2021/03/29 22:19:00;;;;;;;27.43;16.95;;;;;;;11.14;64.38;100400.02;266332;1091;115120;-73
2021/03/29 22:24:06;;;;;;;26.90;15.85;;;;;;;11.10;64.37;100399.25;266322;1091;114758;-74
2021/03/29 22:29:15;;;;;;;27.30;16.30;;;;;;;11.06;64.48;100397.66;266293;1091;114983;-74
2021/03/29 22:34:37;;;;;;;31.70;17.18;;;;;;;11.04;64.39;100394.21;266287;1091;114649;-74
2021/03/29 22:44:44;;;;;;;30.18;17.45;;;;;;;11.10;65.02;100393.06;266281;1091;115682;-74
2021/03/29 22:49:46;;;;;;;31.30;18.95;;;;;;;11.08;65.16;100393.14;266198;1091;114762;-74
2021/03/29 22:54:50;;;;;;;34.73;20.50;;;;;;;11.07;65.24;100398.52;266279;1091;114649;-74
2021/03/29 22:59:53;;;;;;;43.28;25.95;;;;;;;11.03;64.87;100405.77;266152;1091;114862;-75
2021/03/29 23:04:55;;;;;;;44.28;24.80;;;;;;;10.99;64.80;100406.84;266084;1091;114463;-74
2021/03/29 23:09:58;;;;;;;46.15;25.70;;;;;;;10.93;64.81;100396.44;266301;1091;114935;-75
2021/03/29 23:15:00;;;;;;;41.70;25.98;;;;;;;10.90;65.33;100396.56;266399;1091;114901;-75
2021/03/29 23:20:05;;;;;;;48.03;27.65;;;;;;;10.90;65.62;100391.23;266240;1091;114749;-74